sensor_id;sensor_type;location;lat;lon;timestamp;pressure;altitude;pressure_sealevel;temperature;humidity
54556;BME280;57291;37.520;15.106;2022-10-22T00:00:40;102027.03;;;19.23;74.28
54556;BME280;57291;37.520;15.106;2022-10-22T00:03:07;102016.31;;;19.21;74.43
54556;BME280;57291;37.520;15.106;2022-10-22T00:05:34;102018.28;;;19.20;74.59
54556;BME280;57291;37.520;15.106;2022-10-22T00:08:01;102013.09;;;19.19;74.46
54556;BME280;57291;37.520;15.106;2022-10-22T00:10:29;102007.88;;;19.17;74.83
54556;BME280;57291;37.520;15.106;2022-10-22T00:12:56;102010.97;;;19.16;74.83
54556;BME280;57291;37.520;15.106;2022-10-22T00:15:23;102009.69;;;19.13;74.97
54556;BME280;57291;37.520;15.106;2022-10-22T00:17:50;102014.03;;;19.14;74.79
54556;BME280;57291;37.520;15.106;2022-10-22T00:20:18;102018.75;;;19.14;75.24
54556;BME280;57291;37.520;15.106;2022-10-22T00:22:45;102012.44;;;19.13;74.73
54556;BME280;57291;37.520;15.106;2022-10-22T00:25:12;102002.56;;;19.12;74.71
54556;BME280;57291;37.520;15.106;2022-10-22T00:27:39;102010.31;;;19.10;74.98
54556;BME280;57291;37.520;15.106;2022-10-22T00:30:07;102007.06;;;19.08;74.96
54556;BME280;57291;37.520;15.106;2022-10-22T00:32:35;102004.81;;;19.10;74.41
54556;BME280;57291;37.520;15.106;2022-10-22T00:35:02;102003.19;;;19.09;74.09
54556;BME280;57291;37.520;15.106;2022-10-22T00:37:30;102011.78;;;19.08;73.56
54556;BME280;57291;37.520;15.106;2022-10-22T00:39:57;102005.63;;;19.11;73.22
54556;BME280;57291;37.520;15.106;2022-10-22T00:42:25;101997.34;;;19.11;72.94
54556;BME280;57291;37.520;15.106;2022-10-22T00:47:56;102000.59;;;19.13;71.49
54556;BME280;57291;37.520;15.106;2022-10-22T00:53:12;101999.13;;;19.07;70.39
54556;BME280;57291;37.520;15.106;2022-10-22T00:55:42;102000.28;;;19.06;69.91
54556;BME280;57291;37.520;15.106;2022-10-22T00:58:12;101996.72;;;19.05;69.50
54556;BME280;57291;37.520;15.106;2022-10-22T01:00:39;101988.59;;;19.00;68.78
54556;BME280;57291;37.520;15.106;2022-10-22T01:03:07;101997.16;;;18.98;69.15
54556;BME280;57291;37.520;15.106;2022-10-22T01:06:04;101996.69;;;18.96;69.56
54556;BME280;57291;37.520;15.106;2022-10-22T01:14:21;101981.47;;;18.99;69.32
54556;BME280;57291;37.520;15.106;2022-10-22T01:16:54;101983.09;;;19.00;69.88
54556;BME280;57291;37.520;15.106;2022-10-22T01:27:50;101972.88;;;19.18;69.03
54556;BME280;57291;37.520;15.106;2022-10-22T01:30:19;101975.97;;;19.16;69.22
54556;BME280;57291;37.520;15.106;2022-10-22T01:32:53;101980.50;;;19.12;69.31
54556;BME280;57291;37.520;15.106;2022-10-22T01:35:26;101972.72;;;19.06;69.18
54556;BME280;57291;37.520;15.106;2022-10-22T01:37:57;101975.13;;;18.98;69.48
54556;BME280;57291;37.520;15.106;2022-10-22T01:40:27;101975.59;;;18.92;69.40
54556;BME280;57291;37.520;15.106;2022-10-22T01:43:06;101973.00;;;18.87;69.40
54556;BME280;57291;37.520;15.106;2022-10-22T01:45:41;101980.59;;;18.81;69.40
54556;BME280;57291;37.520;15.106;2022-10-22T01:54:01;101986.22;;;18.67;69.03
54556;BME280;57291;37.520;15.106;2022-10-22T01:56:50;101974.22;;;18.63;68.95
54556;BME280;57291;37.520;15.106;2022-10-22T02:02:05;101973.56;;;18.58;67.65
54556;BME280;57291;37.520;15.106;2022-10-22T02:04:40;101970.28;;;18.56;68.00
54556;BME280;57291;37.520;15.106;2022-10-22T02:07:11;101970.63;;;18.54;67.53
54556;BME280;57291;37.520;15.106;2022-10-22T02:09:40;101964.94;;;18.50;67.79
54556;BME280;57291;37.520;15.106;2022-10-22T02:12:09;101962.50;;;18.49;67.66
54556;BME280;57291;37.520;15.106;2022-10-22T02:14:39;101954.56;;;18.47;67.80
54556;BME280;57291;37.520;15.106;2022-10-22T02:17:12;101956.53;;;18.47;67.75
54556;BME280;57291;37.520;15.106;2022-10-22T02:19:43;101964.28;;;18.45;67.30
54556;BME280;57291;37.520;15.106;2022-10-22T02:22:12;101956.66;;;18.42;67.41
54556;BME280;57291;37.520;15.106;2022-10-22T02:24:40;101956.19;;;18.40;67.38
54556;BME280;57291;37.520;15.106;2022-10-22T02:27:50;101957.28;;;18.39;67.25
54556;BME280;57291;37.520;15.106;2022-10-22T02:30:21;101955.16;;;18.36;67.57
54556;BME280;57291;37.520;15.106;2022-10-22T02:35:35;101957.63;;;18.37;67.05
54556;BME280;57291;37.520;15.106;2022-10-22T02:38:03;101952.41;;;18.36;67.24
54556;BME280;57291;37.520;15.106;2022-10-22T02:40:31;101965.38;;;18.35;66.87
54556;BME280;57291;37.520;15.106;2022-10-22T02:42:58;101962.63;;;18.35;67.27
54556;BME280;57291;37.520;15.106;2022-10-22T02:45:26;101956.31;;;18.35;67.21
54556;BME280;57291;37.520;15.106;2022-10-22T02:47:53;101958.56;;;18.33;66.75
54556;BME280;57291;37.520;15.106;2022-10-22T02:50:20;101952.56;;;18.31;66.55
54556;BME280;57291;37.520;15.106;2022-10-22T02:52:47;101951.78;;;18.30;66.67
54556;BME280;57291;37.520;15.106;2022-10-22T02:55:15;101942.72;;;18.30;66.79
54556;BME280;57291;37.520;15.106;2022-10-22T02:57:42;101957.75;;;18.32;67.12
54556;BME280;57291;37.520;15.106;2022-10-22T03:00:10;101956.13;;;18.31;66.99
54556;BME280;57291;37.520;15.106;2022-10-22T03:02:38;101960.03;;;18.30;67.03
54556;BME280;57291;37.520;15.106;2022-10-22T03:05:05;101955.16;;;18.27;66.86
54556;BME280;57291;37.520;15.106;2022-10-22T03:07:32;101955.47;;;18.25;67.13
54556;BME280;57291;37.520;15.106;2022-10-22T03:10:00;101962.91;;;18.25;66.96
54556;BME280;57291;37.520;15.106;2022-10-22T03:12:27;101965.19;;;18.23;67.20
54556;BME280;57291;37.520;15.106;2022-10-22T03:14:54;101959.97;;;18.21;66.44
54556;BME280;57291;37.520;15.106;2022-10-22T03:17:22;101953.16;;;18.19;66.72
54556;BME280;57291;37.520;15.106;2022-10-22T03:19:49;101967.25;;;18.17;66.59
54556;BME280;57291;37.520;15.106;2022-10-22T03:22:25;101969.50;;;18.15;67.09
54556;BME280;57291;37.520;15.106;2022-10-22T03:24:55;101966.28;;;18.13;66.91
54556;BME280;57291;37.520;15.106;2022-10-22T03:27:25;101972.06;;;18.12;66.92
54556;BME280;57291;37.520;15.106;2022-10-22T03:29:54;101975.16;;;18.10;67.63
54556;BME280;57291;37.520;15.106;2022-10-22T03:32:22;101968.34;;;18.08;67.22
54556;BME280;57291;37.520;15.106;2022-10-22T03:34:50;101980.94;;;18.09;67.53
54556;BME280;57291;37.520;15.106;2022-10-22T03:37:17;101972.22;;;18.07;67.20
54556;BME280;57291;37.520;15.106;2022-10-22T03:39:44;101976.09;;;18.05;67.36
54556;BME280;57291;37.520;15.106;2022-10-22T03:42:12;101971.22;;;18.02;67.22
54556;BME280;57291;37.520;15.106;2022-10-22T03:44:39;101980.59;;;18.01;66.87
54556;BME280;57291;37.520;15.106;2022-10-22T03:47:07;101973.16;;;18.02;67.06
54556;BME280;57291;37.520;15.106;2022-10-22T03:49:34;101971.22;;;18.02;66.90
54556;BME280;57291;37.520;15.106;2022-10-22T03:52:06;101980.25;;;18.03;67.16
54556;BME280;57291;37.520;15.106;2022-10-22T03:54:35;101968.47;;;18.02;66.92
54556;BME280;57291;37.520;15.106;2022-10-22T03:57:03;101968.78;;;18.01;66.48
54556;BME280;57291;37.520;15.106;2022-10-22T03:59:39;101977.03;;;18.01;66.31
54556;BME280;57291;37.520;15.106;2022-10-22T04:02:08;101967.97;;;18.00;66.35
54556;BME280;57291;37.520;15.106;2022-10-22T04:04:36;101974.59;;;17.99;65.82
54556;BME280;57291;37.520;15.106;2022-10-22T04:07:04;101964.72;;;17.98;66.13
54556;BME280;57291;37.520;15.106;2022-10-22T04:09:33;101968.91;;;17.96;65.69
54556;BME280;57291;37.520;15.106;2022-10-22T04:12:00;101973.31;;;17.97;65.79
54556;BME280;57291;37.520;15.106;2022-10-22T04:14:28;101966.97;;;17.96;66.14
54556;BME280;57291;37.520;15.106;2022-10-22T04:16:55;101970.03;;;17.95;66.18
54556;BME280;57291;37.520;15.106;2022-10-22T04:19:22;101968.25;;;17.90;65.80
54556;BME280;57291;37.520;15.106;2022-10-22T04:21:49;101983.91;;;17.90;66.04
54556;BME280;57291;37.520;15.106;2022-10-22T04:24:16;101981.50;;;17.88;66.35
54556;BME280;57291;37.520;15.106;2022-10-22T04:26:43;101973.88;;;17.85;66.51
54556;BME280;57291;37.520;15.106;2022-10-22T04:29:11;101983.56;;;17.83;66.43
54556;BME280;57291;37.520;15.106;2022-10-22T04:31:42;101981.13;;;17.81;66.24
54556;BME280;57291;37.520;15.106;2022-10-22T04:34:09;101979.47;;;17.80;66.60
54556;BME280;57291;37.520;15.106;2022-10-22T04:36:36;101984.81;;;17.76;66.65
54556;BME280;57291;37.520;15.106;2022-10-22T04:39:04;101983.16;;;17.75;66.69
54556;BME280;57291;37.520;15.106;2022-10-22T04:41:34;101990.09;;;17.73;67.07
54556;BME280;57291;37.520;15.106;2022-10-22T04:44:02;101986.84;;;17.71;67.11
54556;BME280;57291;37.520;15.106;2022-10-22T04:46:32;101987.97;;;17.70;67.26
54556;BME280;57291;37.520;15.106;2022-10-22T04:49:00;101997.53;;;17.72;67.12
54556;BME280;57291;37.520;15.106;2022-10-22T04:51:30;102003.53;;;17.74;67.22
54556;BME280;57291;37.520;15.106;2022-10-22T04:53:57;101998.66;;;17.71;67.14
54556;BME280;57291;37.520;15.106;2022-10-22T04:56:27;101997.53;;;17.72;66.86
54556;BME280;57291;37.520;15.106;2022-10-22T04:58:59;102001.09;;;17.73;66.71
54556;BME280;57291;37.520;15.106;2022-10-22T05:01:29;102004.97;;;17.72;67.03
54556;BME280;57291;37.520;15.106;2022-10-22T05:03:59;102009.84;;;17.75;66.83
54556;BME280;57291;37.520;15.106;2022-10-22T05:06:29;102003.53;;;17.74;66.71
54556;BME280;57291;37.520;15.106;2022-10-22T05:08:58;102021.97;;;17.74;66.86
54556;BME280;57291;37.520;15.106;2022-10-22T05:11:28;102014.81;;;17.73;66.91
54556;BME280;57291;37.520;15.106;2022-10-22T05:13:57;102022.72;;;17.66;67.08
54556;BME280;57291;37.520;15.106;2022-10-22T05:16:27;102021.72;;;17.62;67.31
54556;BME280;57291;37.520;15.106;2022-10-22T05:18:54;102022.53;;;17.62;67.47
54556;BME280;57291;37.520;15.106;2022-10-22T05:21:22;102031.66;;;17.71;67.59
54556;BME280;57291;37.520;15.106;2022-10-22T05:23:49;102028.88;;;17.85;67.41
54556;BME280;57291;37.520;15.106;2022-10-22T05:26:18;102030.81;;;18.07;66.98
54556;BME280;57291;37.520;15.106;2022-10-22T05:28:48;102027.69;;;18.31;66.10
54556;BME280;57291;37.520;15.106;2022-10-22T05:31:16;102028.63;;;18.58;65.11
54556;BME280;57291;37.520;15.106;2022-10-22T05:33:45;102028.78;;;18.92;64.92
54556;BME280;57291;37.520;15.106;2022-10-22T05:36:15;102039.06;;;19.35;63.77
54556;BME280;57291;37.520;15.106;2022-10-22T05:38:42;102032.41;;;19.80;62.73
54556;BME280;57291;37.520;15.106;2022-10-22T05:41:15;102035.41;;;20.30;61.71
54556;BME280;57291;37.520;15.106;2022-10-22T05:43:42;102029.97;;;20.90;60.63
54556;BME280;57291;37.520;15.106;2022-10-22T05:46:12;102033.25;;;21.34;57.42
54556;BME280;57291;37.520;15.106;2022-10-22T05:48:48;102044.03;;;21.89;56.74
54556;BME280;57291;37.520;15.106;2022-10-22T05:51:16;102042.56;;;22.37;55.51
54556;BME280;57291;37.520;15.106;2022-10-22T05:53:44;102053.44;;;22.79;54.01
54556;BME280;57291;37.520;15.106;2022-10-22T05:56:14;102049.38;;;23.26;53.75
54556;BME280;57291;37.520;15.106;2022-10-22T05:58:43;102051.00;;;23.67;51.54
54556;BME280;57291;37.520;15.106;2022-10-22T06:01:22;102045.91;;;23.97;50.82
54556;BME280;57291;37.520;15.106;2022-10-22T06:03:52;102046.38;;;24.43;50.01
54556;BME280;57291;37.520;15.106;2022-10-22T06:09:01;102065.13;;;25.13;47.67
54556;BME280;57291;37.520;15.106;2022-10-22T06:11:29;102061.44;;;25.25;46.82
54556;BME280;57291;37.520;15.106;2022-10-22T06:14:01;102063.06;;;25.45;46.18
54556;BME280;57291;37.520;15.106;2022-10-22T06:16:29;102073.63;;;25.56;45.87
54556;BME280;57291;37.520;15.106;2022-10-22T06:19:00;102072.97;;;25.62;45.23
54556;BME280;57291;37.520;15.106;2022-10-22T06:21:29;102080.00;;;25.76;44.46
54556;BME280;57291;37.520;15.106;2022-10-22T06:23:58;102084.22;;;25.50;44.59
54556;BME280;57291;37.520;15.106;2022-10-22T06:26:25;102082.03;;;25.40;43.56
54556;BME280;57291;37.520;15.106;2022-10-22T06:28:54;102088.41;;;25.40;44.09
54556;BME280;57291;37.520;15.106;2022-10-22T06:31:22;102088.13;;;25.65;43.23
54556;BME280;57291;37.520;15.106;2022-10-22T06:33:50;102090.97;;;25.84;43.06
54556;BME280;57291;37.520;15.106;2022-10-22T06:36:20;102100.44;;;26.03;42.65
54556;BME280;57291;37.520;15.106;2022-10-22T06:38:50;102096.28;;;25.73;42.83
54556;BME280;57291;37.520;15.106;2022-10-22T06:41:18;102101.94;;;25.77;42.68
54556;BME280;57291;37.520;15.106;2022-10-22T06:43:52;102106.19;;;25.36;42.85
54556;BME280;57291;37.520;15.106;2022-10-22T06:46:21;102103.91;;;24.90;43.75
54556;BME280;57291;37.520;15.106;2022-10-22T06:48:54;102101.34;;;24.82;44.43
54556;BME280;57291;37.520;15.106;2022-10-22T06:51:22;102108.66;;;24.90;44.17
54556;BME280;57291;37.520;15.106;2022-10-22T06:53:49;102106.25;;;24.88;44.74
54556;BME280;57291;37.520;15.106;2022-10-22T06:56:18;102111.66;;;24.81;46.06
54556;BME280;57291;37.520;15.106;2022-10-22T06:58:47;102112.72;;;24.92;45.76
54556;BME280;57291;37.520;15.106;2022-10-22T07:01:16;102111.94;;;25.27;45.53
54556;BME280;57291;37.520;15.106;2022-10-22T07:03:44;102117.34;;;25.55;42.94
54556;BME280;57291;37.520;15.106;2022-10-22T07:06:12;102112.22;;;25.38;41.95
54556;BME280;57291;37.520;15.106;2022-10-22T07:08:41;102119.09;;;25.44;41.10
54556;BME280;57291;37.520;15.106;2022-10-22T07:11:09;102130.06;;;25.37;41.40
54556;BME280;57291;37.520;15.106;2022-10-22T07:13:37;102133.13;;;25.32;41.86
54556;BME280;57291;37.520;15.106;2022-10-22T07:16:05;102131.41;;;25.27;41.68
54556;BME280;57291;37.520;15.106;2022-10-22T07:18:33;102143.75;;;24.94;42.07
54556;BME280;57291;37.520;15.106;2022-10-22T07:21:01;102145.44;;;24.67;43.25
54556;BME280;57291;37.520;15.106;2022-10-22T07:23:29;102149.19;;;24.43;43.97
54556;BME280;57291;37.520;15.106;2022-10-22T07:25:57;102147.84;;;24.25;43.87
54556;BME280;57291;37.520;15.106;2022-10-22T07:28:24;102159.72;;;24.09;44.45
54556;BME280;57291;37.520;15.106;2022-10-22T07:30:52;102155.38;;;23.96;45.08
54556;BME280;57291;37.520;15.106;2022-10-22T07:33:19;102158.38;;;23.91;44.90
54556;BME280;57291;37.520;15.106;2022-10-22T07:35:46;102159.00;;;23.84;45.49
54556;BME280;57291;37.520;15.106;2022-10-22T07:38:14;102150.56;;;23.81;45.54
54556;BME280;57291;37.520;15.106;2022-10-22T07:40:41;102154.50;;;23.80;45.88
54556;BME280;57291;37.520;15.106;2022-10-22T07:43:08;102158.91;;;23.56;45.79
54556;BME280;57291;37.520;15.106;2022-10-22T07:45:35;102164.69;;;23.39;46.32
54556;BME280;57291;37.520;15.106;2022-10-22T07:48:02;102170.50;;;23.46;46.63
54556;BME280;57291;37.520;15.106;2022-10-22T07:50:29;102162.63;;;23.48;46.81
54556;BME280;57291;37.520;15.106;2022-10-22T07:52:57;102162.63;;;23.48;47.09
54556;BME280;57291;37.520;15.106;2022-10-22T07:55:24;102160.22;;;23.47;47.10
54556;BME280;57291;37.520;15.106;2022-10-22T07:57:52;102159.84;;;23.48;47.43
54556;BME280;57291;37.520;15.106;2022-10-22T08:00:19;102164.13;;;23.46;47.94
54556;BME280;57291;37.520;15.106;2022-10-22T08:02:51;102160.53;;;23.45;47.42
54556;BME280;57291;37.520;15.106;2022-10-22T08:05:18;102162.84;;;23.55;47.55
54556;BME280;57291;37.520;15.106;2022-10-22T08:07:45;102168.88;;;23.45;47.56
54556;BME280;57291;37.520;15.106;2022-10-22T08:10:12;102162.97;;;23.47;47.28
54556;BME280;57291;37.520;15.106;2022-10-22T08:12:40;102159.63;;;23.53;47.52
54556;BME280;57291;37.520;15.106;2022-10-22T08:15:08;102158.78;;;23.65;47.30
54556;BME280;57291;37.520;15.106;2022-10-22T08:17:35;102159.84;;;23.73;47.13
54556;BME280;57291;37.520;15.106;2022-10-22T08:20:03;102161.09;;;23.75;47.13
54556;BME280;57291;37.520;15.106;2022-10-22T08:22:31;102152.41;;;23.89;46.62
54556;BME280;57291;37.520;15.106;2022-10-22T08:24:58;102155.38;;;23.96;46.36
54556;BME280;57291;37.520;15.106;2022-10-22T08:27:26;102154.16;;;24.09;46.54
54556;BME280;57291;37.520;15.106;2022-10-22T08:29:53;102166.38;;;24.21;45.29
54556;BME280;57291;37.520;15.106;2022-10-22T08:32:20;102152.53;;;24.37;45.24
54556;BME280;57291;37.520;15.106;2022-10-22T08:34:48;102151.72;;;24.36;44.93
54556;BME280;57291;37.520;15.106;2022-10-22T08:37:15;102155.78;;;24.39;44.74
54556;BME280;57291;37.520;15.106;2022-10-22T08:39:44;102151.72;;;24.36;45.13
54556;BME280;57291;37.520;15.106;2022-10-22T08:42:35;102156.28;;;24.56;44.40
54556;BME280;57291;37.520;15.106;2022-10-22T08:50:38;102151.56;;;24.89;41.77
54556;BME280;57291;37.520;15.106;2022-10-22T08:53:38;102157.03;;;25.01;41.66
54556;BME280;57291;37.520;15.106;2022-10-22T08:56:07;102161.50;;;25.06;42.49
54556;BME280;57291;37.520;15.106;2022-10-22T08:58:42;102153.50;;;25.04;41.85
54556;BME280;57291;37.520;15.106;2022-10-22T09:01:28;102152.44;;;25.09;41.73
54556;BME280;57291;37.520;15.106;2022-10-22T09:06:40;102143.16;;;25.36;41.64
54556;BME280;57291;37.520;15.106;2022-10-22T09:09:15;102147.19;;;25.55;40.89
54556;BME280;57291;37.520;15.106;2022-10-22T09:11:47;102143.44;;;25.47;40.71
54556;BME280;57291;37.520;15.106;2022-10-22T09:14:16;102143.66;;;25.58;39.96
54556;BME280;57291;37.520;15.106;2022-10-22T09:25:20;102135.34;;;25.77;39.81
54556;BME280;57291;37.520;15.106;2022-10-22T09:27:48;102133.16;;;25.86;39.25
54556;BME280;57291;37.520;15.106;2022-10-22T09:30:19;102131.75;;;26.15;38.27
54556;BME280;57291;37.520;15.106;2022-10-22T09:32:53;102138.03;;;26.32;38.22
54556;BME280;57291;37.520;15.106;2022-10-22T09:35:22;102141.72;;;26.16;38.03
54556;BME280;57291;37.520;15.106;2022-10-22T09:37:55;102143.06;;;26.23;38.17
54556;BME280;57291;37.520;15.106;2022-10-22T09:40:22;102147.97;;;26.29;38.45
54556;BME280;57291;37.520;15.106;2022-10-22T09:42:50;102137.06;;;26.43;37.75
54556;BME280;57291;37.520;15.106;2022-10-22T09:45:24;102144.78;;;26.50;37.70
54556;BME280;57291;37.520;15.106;2022-10-22T09:48:10;102148.00;;;26.52;36.89
54556;BME280;57291;37.520;15.106;2022-10-22T09:50:44;102140.16;;;26.19;37.23
54556;BME280;57291;37.520;15.106;2022-10-22T09:53:35;102135.81;;;26.41;37.45
54556;BME280;57291;37.520;15.106;2022-10-22T09:56:09;102141.88;;;26.66;37.22
54556;BME280;57291;37.520;15.106;2022-10-22T09:58:43;102140.19;;;26.84;37.16
54556;BME280;57291;37.520;15.106;2022-10-22T10:01:34;102131.56;;;26.93;36.86
54556;BME280;57291;37.520;15.106;2022-10-22T10:04:05;102125.00;;;27.05;36.00
54556;BME280;57291;37.520;15.106;2022-10-22T10:06:37;102124.25;;;26.85;36.11
54556;BME280;57291;37.520;15.106;2022-10-22T10:09:15;102131.47;;;26.86;36.67
54556;BME280;57291;37.520;15.106;2022-10-22T10:14:56;102120.00;;;27.18;36.32
54556;BME280;57291;37.520;15.106;2022-10-22T10:22:51;102118.56;;;27.27;35.31
54556;BME280;57291;37.520;15.106;2022-10-22T10:25:40;102114.78;;;26.89;36.08
54556;BME280;57291;37.520;15.106;2022-10-22T10:30:56;102107.50;;;26.85;37.01
54556;BME280;57291;37.520;15.106;2022-10-22T10:39:17;102111.78;;;27.55;35.55
54556;BME280;57291;37.520;15.106;2022-10-22T10:42:04;102101.66;;;27.43;34.92
54556;BME280;57291;37.520;15.106;2022-10-22T10:44:56;102100.31;;;27.33;35.35
54556;BME280;57291;37.520;15.106;2022-10-22T11:03:52;102072.13;;;27.76;33.85
54556;BME280;57291;37.520;15.106;2022-10-22T11:06:25;102071.00;;;27.80;33.30
54556;BME280;57291;37.520;15.106;2022-10-22T11:09:04;102056.22;;;27.76;33.88
54556;BME280;57291;37.520;15.106;2022-10-22T11:11:48;102064.91;;;28.05;33.39
54556;BME280;57291;37.520;15.106;2022-10-22T11:14:38;102064.16;;;28.08;32.99
54556;BME280;57291;37.520;15.106;2022-10-22T11:17:16;102042.28;;;28.17;33.13
54556;BME280;57291;37.520;15.106;2022-10-22T11:19:59;102040.44;;;28.36;32.08
54556;BME280;57291;37.520;15.106;2022-10-22T11:22:46;102038.03;;;28.31;31.54
54556;BME280;57291;37.520;15.106;2022-10-22T11:25:43;102045.25;;;28.39;31.75
54556;BME280;57291;37.520;15.106;2022-10-22T11:28:38;102031.69;;;28.37;32.74
54556;BME280;57291;37.520;15.106;2022-10-22T11:31:15;102028.28;;;28.58;32.75
54556;BME280;57291;37.520;15.106;2022-10-22T11:36:47;102022.97;;;28.46;32.10
54556;BME280;57291;37.520;15.106;2022-10-22T11:39:37;102018.06;;;28.36;32.65
54556;BME280;57291;37.520;15.106;2022-10-22T11:42:34;102008.44;;;28.29;32.60
54556;BME280;57291;37.520;15.106;2022-10-22T11:45:27;102014.16;;;28.40;32.15
54556;BME280;57291;37.520;15.106;2022-10-22T11:50:48;101991.06;;;28.06;31.57
54556;BME280;57291;37.520;15.106;2022-10-22T11:53:34;101998.84;;;28.27;31.06
54556;BME280;57291;37.520;15.106;2022-10-22T12:01:39;101990.88;;;28.29;32.96
54556;BME280;57291;37.520;15.106;2022-10-22T12:07:01;101991.06;;;28.47;33.57
54556;BME280;57291;37.520;15.106;2022-10-22T12:09:39;101988.69;;;28.52;33.72
54556;BME280;57291;37.520;15.106;2022-10-22T12:12:13;101985.13;;;28.59;33.90
54556;BME280;57291;37.520;15.106;2022-10-22T12:14:56;101986.31;;;28.58;34.30
54556;BME280;57291;37.520;15.106;2022-10-22T12:17:27;101966.31;;;28.56;34.58
54556;BME280;57291;37.520;15.106;2022-10-22T12:20:03;101966.81;;;28.69;33.75
54556;BME280;57291;37.520;15.106;2022-10-22T12:22:34;101967.53;;;28.59;33.80
54556;BME280;57291;37.520;15.106;2022-10-22T12:25:17;101961.16;;;28.58;34.34
54556;BME280;57291;37.520;15.106;2022-10-22T12:27:50;101957.22;;;28.66;33.66
54556;BME280;57291;37.520;15.106;2022-10-22T12:30:24;101956.34;;;28.55;34.05
54556;BME280;57291;37.520;15.106;2022-10-22T12:32:57;101945.56;;;28.54;34.32
54556;BME280;57291;37.520;15.106;2022-10-22T12:35:33;101947.94;;;28.55;34.71
54556;BME280;57291;37.520;15.106;2022-10-22T12:38:11;101944.44;;;28.69;34.70
54556;BME280;57291;37.520;15.106;2022-10-22T12:40:40;101931.66;;;28.71;34.90
54556;BME280;57291;37.520;15.106;2022-10-22T12:43:28;101937.59;;;28.59;34.90
54556;BME280;57291;37.520;15.106;2022-10-22T12:45:59;101943.28;;;28.73;35.02
54556;BME280;57291;37.520;15.106;2022-10-22T12:48:32;101945.34;;;28.87;35.29
54556;BME280;57291;37.520;15.106;2022-10-22T12:51:04;101945.25;;;28.69;35.72
54556;BME280;57291;37.520;15.106;2022-10-22T12:54:05;101933.75;;;28.89;35.83
54556;BME280;57291;37.520;15.106;2022-10-22T12:56:35;101926.59;;;28.95;35.75
54556;BME280;57291;37.520;15.106;2022-10-22T13:01:38;101925.34;;;28.89;35.57
54556;BME280;57291;37.520;15.106;2022-10-22T13:07:02;101927.63;;;28.62;35.93
54556;BME280;57291;37.520;15.106;2022-10-22T13:09:41;101917.91;;;27.93;46.56
54556;BME280;57291;37.520;15.106;2022-10-22T13:12:11;101925.22;;;27.30;48.73
54556;BME280;57291;37.520;15.106;2022-10-22T13:14:45;101915.31;;;27.03;51.00
54556;BME280;57291;37.520;15.106;2022-10-22T13:17:19;101929.53;;;26.64;52.67
54556;BME280;57291;37.520;15.106;2022-10-22T13:19:59;101934.22;;;26.56;52.79
54556;BME280;57291;37.520;15.106;2022-10-22T13:22:51;101928.59;;;26.30;54.59
54556;BME280;57291;37.520;15.106;2022-10-22T13:25:23;101925.13;;;25.87;55.38
54556;BME280;57291;37.520;15.106;2022-10-22T13:28:18;101916.28;;;25.62;59.77
54556;BME280;57291;37.520;15.106;2022-10-22T13:30:58;101910.16;;;25.33;62.36
54556;BME280;57291;37.520;15.106;2022-10-22T13:33:28;101916.47;;;25.30;62.16
54556;BME280;57291;37.520;15.106;2022-10-22T13:35:56;101921.59;;;25.28;61.68
54556;BME280;57291;37.520;15.106;2022-10-22T13:38:26;101917.84;;;25.20;62.09
54556;BME280;57291;37.520;15.106;2022-10-22T13:40:54;101901.91;;;24.98;62.19
54556;BME280;57291;37.520;15.106;2022-10-22T13:43:22;101902.38;;;24.84;61.77
54556;BME280;57291;37.520;15.106;2022-10-22T13:45:53;101904.66;;;24.78;62.38
54556;BME280;57291;37.520;15.106;2022-10-22T13:48:22;101906.47;;;24.71;64.33
54556;BME280;57291;37.520;15.106;2022-10-22T13:50:51;101900.81;;;24.67;65.94
54556;BME280;57291;37.520;15.106;2022-10-22T13:53:21;101900.34;;;24.81;65.36
54556;BME280;57291;37.520;15.106;2022-10-22T13:55:52;101893.81;;;24.73;65.51
54556;BME280;57291;37.520;15.106;2022-10-22T13:58:21;101886.72;;;24.76;66.30
54556;BME280;57291;37.520;15.106;2022-10-22T14:00:54;101889.94;;;24.59;66.61
54556;BME280;57291;37.520;15.106;2022-10-22T14:03:29;101891.16;;;24.61;66.80
54556;BME280;57291;37.520;15.106;2022-10-22T14:05:58;101898.28;;;24.59;66.54
54556;BME280;57291;37.520;15.106;2022-10-22T14:08:26;101886.88;;;24.48;68.04
54556;BME280;57291;37.520;15.106;2022-10-22T14:10:53;101896.47;;;24.50;68.57
54556;BME280;57291;37.520;15.106;2022-10-22T14:13:21;101889.84;;;24.55;69.20
54556;BME280;57291;37.520;15.106;2022-10-22T14:15:49;101883.75;;;24.49;67.54
54556;BME280;57291;37.520;15.106;2022-10-22T14:18:23;101887.72;;;24.48;69.27
54556;BME280;57291;37.520;15.106;2022-10-22T14:20:55;101894.25;;;24.24;71.04
54556;BME280;57291;37.520;15.106;2022-10-22T14:23:27;101884.66;;;24.22;71.61
54556;BME280;57291;37.520;15.106;2022-10-22T14:25:55;101895.28;;;24.16;73.25
54556;BME280;57291;37.520;15.106;2022-10-22T14:28:23;101889.88;;;24.07;73.01
54556;BME280;57291;37.520;15.106;2022-10-22T14:30:51;101898.75;;;23.97;72.88
54556;BME280;57291;37.520;15.106;2022-10-22T14:33:30;101892.31;;;23.93;73.52
54556;BME280;57291;37.520;15.106;2022-10-22T14:35:59;101891.31;;;24.01;73.71
54556;BME280;57291;37.520;15.106;2022-10-22T14:38:26;101902.50;;;24.05;74.12
54556;BME280;57291;37.520;15.106;2022-10-22T14:40:54;101906.00;;;24.02;74.25
54556;BME280;57291;37.520;15.106;2022-10-22T14:43:25;101909.31;;;23.92;74.33
54556;BME280;57291;37.520;15.106;2022-10-22T14:45:53;101910.97;;;23.93;74.30